Time;durP1;ratioP1;P1;durP2;ratioP2;P2;SDS_P1;SDS_P2;PMS_P1;PMS_P2;Temp;Humidity;BMP_temperature;BMP_pressure;BME280_temperature;BME280_humidity;BME280_pressure;Samples;Min_cycle;Max_cycle;Signal;HPM_P1;HPM_P2
2021/03/01 00:04:57;;;;;;;28.58;15.10;;;3.90;99.90;;;;;;12428705;28;20119;-84
2021/03/01 00:10:59;;;;;;;28.73;14.13;;;3.90;99.90;;;;;;12426400;28;20121;-84
2021/03/01 00:17:00;;;;;;;33.13;14.32;;;3.90;99.90;;;;;;12432594;28;20124;-85
2021/03/01 00:23:02;;;;;;;28.63;13.68;;;3.80;99.90;;;;;;12431673;28;20045;-85
2021/03/01 00:29:03;;;;;;;25.20;13.90;;;3.80;99.90;;;;;;12421007;28;20057;-84
2021/03/01 00:35:07;;;;;;;24.73;13.18;;;3.80;99.90;;;;;;12430260;28;20074;-84
2021/03/01 00:41:08;;;;;;;26.15;13.00;;;3.80;99.90;;;;;;12420681;28;20080;-85
2021/03/01 00:47:09;;;;;;;24.73;13.60;;;3.80;99.90;;;;;;12419220;28;20050;-85
2021/03/01 00:53:20;;;;;;;26.27;14.10;;;3.80;99.90;;;;;;12418512;28;20077;-85
2021/03/01 00:59:21;;;;;;;24.23;12.77;;;3.70;99.90;;;;;;12413866;28;20073;-84
2021/03/01 01:05:23;;;;;;;26.23;12.30;;;3.80;99.90;;;;;;12414190;28;20046;-84
2021/03/01 01:11:24;;;;;;;25.02;12.80;;;3.80;99.90;;;;;;12414437;28;20042;-85
2021/03/01 01:17:26;;;;;;;25.02;12.13;;;3.70;99.90;;;;;;12395417;28;20068;-84
2021/03/01 01:23:27;;;;;;;25.35;12.50;;;3.70;99.90;;;;;;12411055;28;20137;-84
2021/03/01 01:29:28;;;;;;;24.70;12.80;;;3.60;99.90;;;;;;12410118;28;20180;-84
2021/03/01 01:35:30;;;;;;;27.85;14.23;;;3.70;99.90;;;;;;12399172;28;20078;-84
2021/03/01 01:41:31;;;;;;;29.33;13.45;;;3.70;99.90;;;;;;12398824;28;20141;-84
2021/03/01 01:47:32;;;;;;;28.35;14.70;;;3.70;99.90;;;;;;12407542;28;20046;-84
2021/03/01 01:53:34;;;;;;;31.52;15.25;;;3.80;99.90;;;;;;12404821;28;20053;-84
2021/03/01 01:59:35;;;;;;;30.17;15.32;;;3.80;99.90;;;;;;12410576;28;20057;-84
2021/03/01 02:05:39;;;;;;;30.20;14.05;;;3.80;99.90;;;;;;12407644;28;20235;-84
2021/03/01 02:12:06;;;;;;;31.35;14.93;;;3.80;99.90;;;;;;12406101;28;20064;-84
2021/03/01 02:18:07;;;;;;;32.05;15.95;;;3.80;99.90;;;;;;12415617;28;20037;-84
2021/03/01 02:24:09;;;;;;;33.13;15.68;;;3.80;99.90;;;;;;12417872;28;20045;-84
2021/03/01 02:30:44;;;;;;;30.40;14.48;;;3.80;99.90;;;;;;12448413;28;20125;-84
2021/03/01 02:36:45;;;;;;;26.83;13.00;;;3.80;99.90;;;;;;12429459;28;20042;-84
2021/03/01 02:42:47;;;;;;;26.45;12.40;;;3.70;99.90;;;;;;12445221;28;20501;-84
2021/03/01 02:48:49;;;;;;;22.63;11.52;;;3.60;99.90;;;;;;12445997;28;20071;-85
2021/03/01 02:54:52;;;;;;;21.20;12.02;;;3.70;99.90;;;;;;12450458;28;20163;-84
2021/03/01 03:00:55;;;;;;;22.48;11.73;;;3.60;99.90;;;;;;12442110;28;20069;-84
2021/03/01 03:06:57;;;;;;;24.00;12.10;;;3.60;99.90;;;;;;12442172;28;20084;-84
2021/03/01 03:12:59;;;;;;;26.55;12.63;;;3.60;99.90;;;;;;12444449;28;20095;-84
2021/03/01 03:19:01;;;;;;;24.40;12.23;;;3.60;99.90;;;;;;12453520;28;20700;-84
2021/03/01 03:25:07;;;;;;;26.73;12.45;;;3.60;99.90;;;;;;12443148;28;20061;-84
2021/03/01 03:31:08;;;;;;;25.52;12.75;;;3.70;99.90;;;;;;12443512;28;20563;-84
2021/03/01 03:37:15;;;;;;;23.27;11.90;;;3.70;99.90;;;;;;12462433;28;20144;-84
2021/03/01 03:43:17;;;;;;;22.60;12.15;;;3.70;99.90;;;;;;12440418;28;20041;-84
2021/03/01 03:49:20;;;;;;;25.75;13.20;;;3.60;99.90;;;;;;12452192;28;20053;-84
2021/03/01 03:55:22;;;;;;;24.67;12.18;;;3.60;99.90;;;;;;12461686;28;20515;-84
2021/03/01 04:01:29;;;;;;;24.83;13.60;;;3.70;99.90;;;;;;12445513;28;20809;-84
2021/03/01 04:07:33;;;;;;;22.80;12.53;;;3.70;99.90;;;;;;12454177;28;20674;-84
2021/03/01 04:13:35;;;;;;;26.88;13.45;;;3.60;99.90;;;;;;12446136;28;20501;-84
2021/03/01 04:19:38;;;;;;;25.50;13.40;;;3.60;99.90;;;;;;12445078;28;20143;-85
2021/03/01 04:25:39;;;;;;;21.60;12.82;;;3.60;99.90;;;;;;12444949;28;20117;-84
2021/03/01 04:31:43;;;;;;;21.60;12.60;;;3.60;99.90;;;;;;12468072;28;20087;-85
2021/03/01 04:37:45;;;;;;;22.42;12.50;;;3.60;99.90;;;;;;12449927;28;20053;-85
2021/03/01 04:43:48;;;;;;;22.10;12.82;;;3.60;99.90;;;;;;12441375;28;20439;-84
2021/03/01 04:49:50;;;;;;;28.67;13.77;;;3.50;99.90;;;;;;12441447;28;20120;-84
2021/03/01 04:55:52;;;;;;;22.48;12.50;;;3.50;99.90;;;;;;12429970;28;20045;-84
2021/03/01 05:01:53;;;;;;;23.02;13.55;;;3.60;99.90;;;;;;12439003;28;20428;-84
2021/03/01 05:08:01;;;;;;;25.30;13.70;;;3.50;99.90;;;;;;12459154;28;20045;-84
2021/03/01 05:14:04;;;;;;;26.88;13.77;;;3.50;99.90;;;;;;12436169;28;20220;-84
2021/03/01 05:20:06;;;;;;;22.55;12.30;;;3.40;99.90;;;;;;12437141;28;20106;-84
2021/03/01 05:26:08;;;;;;;21.27;13.18;;;3.40;99.90;;;;;;12436707;28;20235;-83
2021/03/01 05:32:09;;;;;;;21.65;13.27;;;3.40;99.90;;;;;;12433464;28;20042;-84
2021/03/01 05:38:11;;;;;;;23.80;12.23;;;3.40;99.90;;;;;;12443085;28;20378;-84
2021/03/01 05:44:12;;;;;;;23.92;14.07;;;3.30;99.90;;;;;;12439307;28;20053;-85
2021/03/01 05:50:17;;;;;;;24.67;13.65;;;3.30;99.90;;;;;;12438690;28;20096;-84
2021/03/01 05:56:20;;;;;;;22.58;11.90;;;3.30;99.90;;;;;;12460234;28;20045;-84
2021/03/01 06:02:22;;;;;;;26.38;14.40;;;3.40;99.90;;;;;;12439822;28;20042;-85
2021/03/01 06:08:25;;;;;;;34.30;14.98;;;3.40;99.90;;;;;;12439529;28;20096;-84
2021/03/01 06:14:26;;;;;;;31.50;15.38;;;3.30;99.90;;;;;;12441713;28;20068;-85
2021/03/01 06:20:27;;;;;;;28.85;15.52;;;3.30;99.90;;;;;;12436367;28;20115;-85
2021/03/01 06:26:31;;;;;;;29.08;15.95;;;3.30;99.90;;;;;;12436477;28;20100;-85
2021/03/01 06:32:32;;;;;;;38.35;16.98;;;3.40;99.90;;;;;;12435788;28;20084;-85
2021/03/01 06:38:35;;;;;;;32.50;16.50;;;3.30;99.90;;;;;;12434509;28;20068;-85
2021/03/01 06:44:37;;;;;;;32.72;16.35;;;3.20;99.90;;;;;;12438698;28;20061;-84
2021/03/01 06:50:44;;;;;;;34.67;17.38;;;3.20;99.90;;;;;;12432704;28;20065;-84
2021/03/01 06:56:46;;;;;;;31.02;15.45;;;3.30;99.90;;;;;;12431791;28;20200;-84
2021/03/01 07:02:48;;;;;;;31.58;16.20;;;3.30;99.90;;;;;;12434272;28;20068;-84
2021/03/01 07:08:54;;;;;;;34.65;17.67;;;3.30;99.90;;;;;;12427371;28;20728;-84
2021/03/01 07:14:55;;;;;;;32.65;16.98;;;3.40;99.90;;;;;;12433350;28;20056;-85
2021/03/01 07:20:57;;;;;;;34.13;16.98;;;3.50;99.90;;;;;;12437804;28;20049;-84
2021/03/01 07:27:04;;;;;;;31.15;16.50;;;3.50;99.90;;;;;;12435007;28;20054;-84
2021/03/01 07:33:06;;;;;;;33.95;16.67;;;3.60;99.90;;;;;;12449369;28;20410;-84
2021/03/01 07:39:14;;;;;;;32.50;17.02;;;3.70;99.90;;;;;;12440455;28;20065;-84
2021/03/01 07:45:18;;;;;;;29.63;16.40;;;3.80;99.90;;;;;;12437070;28;20037;-84
2021/03/01 07:51:39;;;;;;;30.05;16.38;;;3.80;99.90;;;;;;12440540;28;20086;-84
2021/03/01 07:57:41;;;;;;;31.48;15.55;;;3.90;99.90;;;;;;12444016;28;20053;-84
2021/03/01 08:03:42;;;;;;;27.40;14.25;;;3.60;99.90;;;;;;12451914;28;20073;-84
2021/03/01 08:09:50;;;;;;;28.63;15.75;;;3.80;99.90;;;;;;12444637;28;20050;-84
2021/03/01 08:15:51;;;;;;;27.50;15.68;;;4.10;99.90;;;;;;12435477;28;20087;-84
2021/03/01 08:22:04;;;;;;;24.77;14.10;;;4.20;99.90;;;;;;12441588;28;20140;-84
2021/03/01 08:28:05;;;;;;;22.38;12.75;;;4.00;99.90;;;;;;12456058;28;20081;-83
2021/03/01 08:34:24;;;;;;;25.00;13.48;;;4.00;99.90;;;;;;12444901;28;20509;-84
2021/03/01 08:40:26;;;;;;;20.65;12.23;;;4.00;99.90;;;;;;12442536;28;20045;-84
2021/03/01 08:46:27;;;;;;;21.90;12.15;;;3.90;99.90;;;;;;12444106;28;20129;-84
2021/03/01 08:52:28;;;;;;;24.92;13.25;;;4.00;99.90;;;;;;12449416;28;20065;-83
2021/03/01 08:58:35;;;;;;;19.02;11.65;;;4.20;99.90;;;;;;12443416;28;20195;-84
2021/03/01 09:04:37;;;;;;;21.05;12.02;;;4.20;99.90;;;;;;12447391;28;20046;-84
2021/03/01 09:10:41;;;;;;;20.20;12.35;;;4.10;99.90;;;;;;12451186;28;20401;-84
2021/03/01 09:16:44;;;;;;;18.13;12.00;;;4.20;99.90;;;;;;12445249;28;20479;-84
2021/03/01 09:22:46;;;;;;;24.55;13.60;;;4.40;99.90;;;;;;12440395;28;20376;-84
2021/03/01 09:28:47;;;;;;;20.25;11.43;;;4.30;99.90;;;;;;12444152;28;20146;-84
2021/03/01 09:35:18;;;;;;;19.02;10.98;;;4.50;99.90;;;;;;12464611;28;20049;-84
2021/03/01 09:41:36;;;;;;;18.13;11.05;;;4.70;99.90;;;;;;12443971;28;20126;-84
2021/03/01 09:47:38;;;;;;;20.65;12.05;;;4.80;99.90;;;;;;12462436;28;20953;-84
2021/03/01 09:53:40;;;;;;;19.75;10.93;;;4.80;99.90;;;;;;12430654;28;20052;-84
2021/03/01 09:59:43;;;;;;;15.38;9.10;;;5.00;99.90;;;;;;12457522;28;20071;-84
2021/03/01 10:05:49;;;;;;;15.38;8.85;;;5.30;99.90;;;;;;12433205;28;20042;-84
2021/03/01 10:11:59;;;;;;;14.57;8.38;;;5.40;99.90;;;;;;12461017;28;20072;-84
2021/03/01 10:18:10;;;;;;;13.18;8.40;;;5.30;99.90;;;;;;12425958;28;20045;-84
2021/03/01 10:24:12;;;;;;;12.15;8.32;;;5.60;99.90;;;;;;12433588;28;20060;-83
2021/03/01 10:30:16;;;;;;;13.82;8.23;;;5.50;99.90;;;;;;12436787;28;20057;-84
2021/03/01 10:36:19;;;;;;;15.13;8.32;;;5.50;99.90;;;;;;12445063;28;20045;-84
2021/03/01 10:42:22;;;;;;;15.85;9.10;;;5.30;99.90;;;;;;12441080;28;20079;-84
2021/03/01 10:48:23;;;;;;;17.48;9.30;;;5.50;99.90;;;;;;12447291;28;20071;-84
2021/03/01 10:54:28;;;;;;;17.15;9.98;;;6.10;99.90;;;;;;12438940;28;20128;-84
2021/03/01 11:00:29;;;;;;;18.27;10.43;;;5.80;99.90;;;;;;12433625;28;20046;-84
2021/03/01 11:06:32;;;;;;;17.55;10.15;;;5.70;99.90;;;;;;12431678;28;20068;-84
2021/03/01 11:12:33;;;;;;;18.08;10.55;;;6.20;99.90;;;;;;12444051;28;20176;-83
2021/03/01 11:18:34;;;;;;;22.77;13.75;;;7.10;99.90;;;;;;12430603;28;20050;-84
2021/03/01 11:24:36;;;;;;;29.42;13.95;;;6.50;99.90;;;;;;12442995;28;20053;-84
2021/03/01 11:30:38;;;;;;;29.95;16.90;;;6.10;99.90;;;;;;12448843;28;20119;-84
2021/03/01 11:36:40;;;;;;;39.90;19.52;;;5.90;99.90;;;;;;12445732;28;20053;-84
2021/03/01 11:42:41;;;;;;;37.83;20.52;;;6.00;99.90;;;;;;12449628;28;20069;-84
2021/03/01 11:48:43;;;;;;;40.08;21.58;;;5.90;99.90;;;;;;12446522;28;20041;-83
2021/03/01 11:54:44;;;;;;;37.65;21.02;;;6.40;99.90;;;;;;12441520;28;20049;-83
2021/03/01 12:00:46;;;;;;;37.42;20.95;;;6.70;99.90;;;;;;12440715;28;20049;-84
2021/03/01 12:06:55;;;;;;;38.70;21.48;;;6.40;99.90;;;;;;12445108;28;20107;-84
2021/03/01 12:12:57;;;;;;;40.83;23.00;;;6.80;99.90;;;;;;12467402;28;20041;-84
2021/03/01 12:18:58;;;;;;;43.13;23.27;;;6.80;99.90;;;;;;12447910;28;20258;-84
2021/03/01 12:25:00;;;;;;;41.33;21.90;;;6.80;99.90;;;;;;12445456;28;20168;-84
2021/03/01 12:31:01;;;;;;;43.22;23.90;;;6.90;99.90;;;;;;12448998;28;20438;-83
2021/03/01 12:37:23;;;;;;;42.10;23.30;;;7.00;99.90;;;;;;12455350;28;20098;-84
2021/03/01 12:43:24;;;;;;;37.35;20.95;;;7.50;99.90;;;;;;12453087;28;20382;-85
2021/03/01 12:49:25;;;;;;;35.58;20.38;;;7.70;99.90;;;;;;12451264;28;20069;-84
2021/03/01 12:55:27;;;;;;;40.33;21.88;;;7.30;99.90;;;;;;12437915;28;20072;-84
2021/03/01 13:01:28;;;;;;;34.10;19.05;;;7.40;99.90;;;;;;12446759;28;20132;-84
2021/03/01 13:07:44;;;;;;;31.42;18.23;;;7.50;99.90;;;;;;12441346;28;20092;-84
2021/03/01 13:13:46;;;;;;;29.08;16.65;;;8.10;99.90;;;;;;12438183;28;20070;-84
2021/03/01 13:19:47;;;;;;;31.75;17.98;;;8.70;99.90;;;;;;12460664;28;20129;-84
2021/03/01 13:25:49;;;;;;;33.13;17.58;;;8.80;99.90;;;;;;12454808;28;20052;-84
2021/03/01 13:31:50;;;;;;;29.25;17.23;;;8.40;99.90;;;;;;12449449;28;20164;-84
2021/03/01 13:38:07;;;;;;;28.25;15.77;;;8.00;99.90;;;;;;12444999;28;20052;-85
2021/03/01 13:44:08;;;;;;;26.63;15.18;;;7.80;99.90;;;;;;12456314;28;20128;-84
2021/03/01 13:50:12;;;;;;;25.60;14.00;;;7.80;99.90;;;;;;12454378;28;20046;-84
2021/03/01 13:56:14;;;;;;;24.15;13.88;;;8.00;99.90;;;;;;12442446;28;20054;-84
2021/03/01 14:02:15;;;;;;;24.33;13.90;;;7.90;99.90;;;;;;12464674;28;20118;-84
2021/03/01 14:08:29;;;;;;;20.63;12.23;;;8.00;99.90;;;;;;12468628;28;20041;-85
2021/03/01 14:14:31;;;;;;;18.90;11.35;;;7.80;99.90;;;;;;12453630;28;20096;-84
2021/03/01 14:20:34;;;;;;;20.20;11.77;;;7.80;99.90;;;;;;12462556;28;20053;-85
2021/03/01 14:26:36;;;;;;;21.75;13.85;;;7.70;99.90;;;;;;12480415;28;20073;-85
2021/03/01 14:32:39;;;;;;;26.23;14.50;;;7.70;99.90;;;;;;12475746;28;20061;-86
2021/03/01 14:38:53;;;;;;;21.90;13.13;;;7.60;99.90;;;;;;12455175;28;20736;-85
2021/03/01 14:44:54;;;;;;;23.90;13.73;;;7.60;99.90;;;;;;12450167;28;20045;-85
2021/03/01 14:50:56;;;;;;;23.65;13.65;;;7.50;99.90;;;;;;12449586;28;21097;-85
2021/03/01 14:56:58;;;;;;;19.10;11.90;;;7.40;99.90;;;;;;12448085;28;20129;-85
2021/03/01 15:03:09;;;;;;;22.20;13.05;;;7.40;99.90;;;;;;12432406;28;20049;-85
2021/03/01 15:09:17;;;;;;;19.00;12.13;;;7.30;99.90;;;;;;12452607;28;20052;-85
2021/03/01 15:15:18;;;;;;;21.83;12.23;;;7.40;99.90;;;;;;12443356;28;20069;-85
2021/03/01 15:21:20;;;;;;;19.20;11.43;;;7.30;99.90;;;;;;12440845;28;20073;-85
2021/03/01 15:27:21;;;;;;;21.33;11.95;;;7.40;99.90;;;;;;12465505;28;20199;-85
2021/03/01 15:33:22;;;;;;;20.85;11.70;;;7.40;99.90;;;;;;12458010;28;20139;-84
2021/03/01 15:39:44;;;;;;;18.73;11.63;;;7.40;99.90;;;;;;12455973;28;20053;-84
2021/03/01 15:45:45;;;;;;;19.35;12.52;;;7.40;99.90;;;;;;12453577;28;20065;-85
2021/03/01 15:51:47;;;;;;;26.33;14.43;;;7.50;99.90;;;;;;12459707;28;20405;-85
2021/03/01 15:57:49;;;;;;;23.05;13.10;;;7.50;99.90;;;;;;12445188;28;20045;-84
2021/03/01 16:03:50;;;;;;;26.63;14.32;;;7.40;99.90;;;;;;12440534;28;20050;-84
2021/03/01 16:10:07;;;;;;;27.58;16.40;;;7.30;99.90;;;;;;12442431;28;20092;-84
2021/03/01 16:16:08;;;;;;;24.80;15.18;;;7.10;99.90;;;;;;12442595;28;20049;-84
2021/03/01 16:22:10;;;;;;;27.80;14.88;;;7.00;99.90;;;;;;12445089;28;20049;-85
2021/03/01 16:28:11;;;;;;;26.15;14.30;;;6.90;99.90;;;;;;12449490;28;20113;-85
2021/03/01 16:34:13;;;;;;;26.63;14.95;;;6.80;99.90;;;;;;12465172;28;20068;-84
2021/03/01 16:40:26;;;;;;;26.00;14.43;;;6.60;99.90;;;;;;12449201;28;20121;-85
2021/03/01 16:46:31;;;;;;;24.85;13.43;;;6.40;99.90;;;;;;12446978;28;20099;-84
2021/03/01 16:52:32;;;;;;;24.92;13.95;;;6.20;99.90;;;;;;12468767;28;20603;-84
2021/03/01 16:58:35;;;;;;;23.90;13.20;;;5.80;99.90;;;;;;12447722;28;20240;-83
2021/03/01 17:04:37;;;;;;;25.20;13.98;;;5.70;99.90;;;;;;12459497;28;20042;-84
2021/03/01 17:10:52;;;;;;;25.15;13.35;;;5.70;99.90;;;;;;12453972;28;20095;-84
2021/03/01 17:16:58;;;;;;;23.02;13.07;;;5.50;99.90;;;;;;12440835;28;20099;-85
2021/03/01 17:23:06;;;;;;;22.10;12.70;;;5.40;99.90;;;;;;12456983;28;20041;-84
2021/03/01 17:29:09;;;;;;;24.42;13.63;;;5.30;99.90;;;;;;12455244;28;20149;-84
2021/03/01 17:35:14;;;;;;;28.92;13.70;;;5.20;99.90;;;;;;12448852;28;20034;-85
2021/03/01 17:41:20;;;;;;;26.38;14.15;;;5.10;99.90;;;;;;12453128;28;20620;-83
2021/03/01 17:47:34;;;;;;;30.05;15.02;;;5.00;99.90;;;;;;12460100;28;20136;-83
2021/03/01 17:53:45;;;;;;;24.70;14.55;;;5.00;99.90;;;;;;12457165;28;20163;-83
2021/03/01 18:00:19;;;;;;;25.10;15.38;;;4.80;99.90;;;;;;12441537;28;20066;-83
2021/03/01 18:06:21;;;;;;;29.92;14.27;;;4.80;99.90;;;;;;12411582;28;20053;-83
2021/03/01 18:12:23;;;;;;;27.20;14.70;;;4.70;99.90;;;;;;12445487;28;20033;-83
2021/03/01 18:18:26;;;;;;;32.53;15.43;;;4.50;99.90;;;;;;12453506;28;20049;-83
2021/03/01 18:24:28;;;;;;;31.83;15.82;;;4.40;99.90;;;;;;12441820;28;20068;-83
2021/03/01 18:30:30;;;;;;;26.52;15.38;;;4.40;99.90;;;;;;12448465;28;20422;-83
2021/03/01 18:36:35;;;;;;;24.40;14.75;;;4.40;99.90;;;;;;12454666;28;20128;-83
2021/03/01 18:42:42;;;;;;;27.48;15.13;;;4.40;99.90;;;;;;12468429;28;20045;-83
2021/03/01 18:48:44;;;;;;;29.60;15.63;;;4.40;99.90;;;;;;12441136;28;20045;-83
2021/03/01 18:54:45;;;;;;;28.40;14.98;;;4.30;99.90;;;;;;12437153;28;20420;-83
2021/03/01 19:00:47;;;;;;;25.77;13.75;;;4.30;99.90;;;;;;12441543;28;20054;-82
2021/03/01 19:06:50;;;;;;;26.85;15.07;;;4.30;99.90;;;;;;12455861;28;20064;-83
2021/03/01 19:12:51;;;;;;;26.90;14.60;;;4.30;99.90;;;;;;12444485;28;20053;-83
2021/03/01 19:18:53;;;;;;;27.38;15.35;;;4.20;99.90;;;;;;12447162;28;20049;-83
2021/03/01 19:24:55;;;;;;;30.58;14.98;;;4.20;99.90;;;;;;12441691;28;20202;-83
2021/03/01 19:30:56;;;;;;;24.25;13.50;;;4.10;99.90;;;;;;12445266;28;20050;-83
2021/03/01 19:36:58;;;;;;;22.23;12.93;;;4.10;99.90;;;;;;12448525;28;20057;-83
2021/03/01 19:43:00;;;;;;;26.88;14.07;;;3.80;99.90;;;;;;12460295;28;20080;-83
2021/03/01 19:49:04;;;;;;;27.00;13.35;;;3.70;99.90;;;;;;12461741;28;20474;-83
2021/03/01 19:55:07;;;;;;;28.40;14.77;;;3.60;99.90;;;;;;12442303;28;20240;-83
2021/03/01 20:01:08;;;;;;;27.27;15.00;;;3.60;99.90;;;;;;12443196;28;20627;-82
2021/03/01 20:07:10;;;;;;;28.48;14.55;;;3.60;99.90;;;;;;12441811;28;20547;-82
2021/03/01 20:13:11;;;;;;;27.33;14.50;;;3.50;99.90;;;;;;12448752;28;20127;-83
2021/03/01 20:19:13;;;;;;;31.27;15.38;;;3.40;99.90;;;;;;12442364;28;20073;-82
2021/03/01 20:25:15;;;;;;;27.17;14.07;;;3.20;99.90;;;;;;12434774;28;20072;-82
2021/03/01 20:31:17;;;;;;;28.35;15.07;;;3.20;99.90;;;;;;12447284;28;20049;-83
2021/03/01 20:37:20;;;;;;;25.13;13.95;;;3.10;99.90;;;;;;12453420;28;20072;-82
2021/03/01 20:43:27;;;;;;;31.38;15.10;;;3.10;99.90;;;;;;12446250;28;20042;-83
2021/03/01 20:49:28;;;;;;;28.35;14.07;;;3.10;99.90;;;;;;12450065;28;20073;-83
2021/03/01 20:55:29;;;;;;;27.63;15.32;;;3.00;99.90;;;;;;12446884;28;20534;-82
2021/03/01 21:01:31;;;;;;;26.80;15.05;;;3.10;99.90;;;;;;12449224;28;20129;-82
2021/03/01 21:07:34;;;;;;;29.02;15.45;;;3.00;99.90;;;;;;12437586;28;20050;-82
2021/03/01 21:13:47;;;;;;;26.27;13.75;;;3.00;99.90;;;;;;12451516;28;20520;-82
2021/03/01 21:19:50;;;;;;;25.45;14.77;;;2.80;99.90;;;;;;12430634;28;20049;-82
2021/03/01 21:25:55;;;;;;;27.92;14.38;;;2.70;99.90;;;;;;12454479;28;20057;-82
2021/03/01 21:31:56;;;;;;;25.58;14.82;;;2.70;99.90;;;;;;12455400;28;20046;-83
2021/03/01 21:37:58;;;;;;;27.50;15.27;;;2.70;99.90;;;;;;12455187;28;20780;-83
2021/03/01 21:44:09;;;;;;;25.35;13.32;;;2.80;99.90;;;;;;12449962;28;20037;-83
2021/03/01 21:50:15;;;;;;;25.17;13.77;;;2.70;99.90;;;;;;12442789;28;20069;-82
2021/03/01 21:56:17;;;;;;;32.28;15.65;;;2.60;99.90;;;;;;12439066;28;20130;-82
2021/03/01 22:02:24;;;;;;;35.70;16.60;;;2.90;99.90;;;;;;12437152;28;20073;-83
2021/03/01 22:08:26;;;;;;;32.33;16.08;;;2.90;99.90;;;;;;12443912;28;20045;-83
2021/03/01 22:14:37;;;;;;;30.92;16.35;;;3.00;99.90;;;;;;12446451;28;20041;-83
2021/03/01 22:20:40;;;;;;;31.48;17.00;;;3.00;99.90;;;;;;12438845;28;20057;-83
2021/03/01 22:26:58;;;;;;;32.80;16.45;;;3.10;99.90;;;;;;12450884;28;20057;-82
2021/03/01 22:33:03;;;;;;;35.33;16.67;;;3.00;99.90;;;;;;12446111;28;20095;-82
2021/03/01 22:39:13;;;;;;;27.40;14.73;;;3.30;99.90;;;;;;12446335;28;20045;-83
2021/03/01 22:45:15;;;;;;;28.42;15.38;;;3.40;99.90;;;;;;12463063;28;20077;-83
2021/03/01 22:51:17;;;;;;;30.25;16.05;;;3.50;99.90;;;;;;12490965;28;20038;-83
2021/03/01 22:57:22;;;;;;;30.52;16.25;;;3.50;99.90;;;;;;12484634;28;20029;-83
2021/03/01 23:03:24;;;;;;;25.45;14.85;;;3.50;99.90;;;;;;12485152;28;20037;-82
2021/03/01 23:09:25;;;;;;;26.38;14.82;;;3.50;99.90;;;;;;12488165;28;20101;-82
2021/03/01 23:15:27;;;;;;;29.55;14.43;;;3.50;99.90;;;;;;12486964;28;20049;-83
2021/03/01 23:21:28;;;;;;;29.40;15.63;;;3.50;99.90;;;;;;12487093;28;20048;-83
2021/03/01 23:27:29;;;;;;;28.67;15.25;;;3.40;99.90;;;;;;12504160;28;20060;-83
2021/03/01 23:33:31;;;;;;;28.92;16.02;;;3.50;99.90;;;;;;12508494;28;20109;-83
2021/03/01 23:39:34;;;;;;;30.40;15.30;;;3.50;99.90;;;;;;12495453;28;20131;-83
2021/03/01 23:45:42;;;;;;;30.45;15.65;;;3.40;99.90;;;;;;12505065;28;20061;-82
2021/03/01 23:51:47;;;;;;;30.63;15.32;;;3.30;99.90;;;;;;12499866;28;20061;-82
2021/03/01 23:57:50;;;;;;;29.35;15.75;;;3.10;99.90;;;;;;12486374;28;20045;-82
